createdAt,value
2018-08-23T00:00:34.693Z,0.00
2018-08-23T00:01:34.881Z,0.00
2018-08-23T00:02:35.056Z,0.00
2018-08-23T00:03:35.254Z,0.00
2018-08-23T00:04:35.415Z,0.00
2018-08-23T00:05:35.590Z,0.00
2018-08-23T00:06:35.770Z,0.00
2018-08-23T00:07:35.952Z,0.00
2018-08-23T00:08:36.133Z,0.00
2018-08-23T00:09:36.324Z,0.00
2018-08-23T00:10:36.505Z,0.00
2018-08-23T00:11:36.675Z,0.00
2018-08-23T00:12:36.849Z,0.00
2018-08-23T00:13:37.023Z,0.00
2018-08-23T00:14:37.219Z,0.00
2018-08-23T00:15:37.376Z,0.00
2018-08-23T00:16:37.596Z,0.00
2018-08-23T00:17:37.730Z,0.00
2018-08-23T00:18:37.903Z,0.00
2018-08-23T00:19:38.080Z,0.00
2018-08-23T00:20:38.259Z,0.00
2018-08-23T00:21:38.432Z,0.00
2018-08-23T00:22:38.606Z,0.00
2018-08-23T00:23:38.777Z,0.00
2018-08-23T00:24:38.950Z,0.00
2018-08-23T00:25:39.127Z,0.00
2018-08-23T00:26:39.306Z,0.00
2018-08-23T00:27:39.474Z,0.00
2018-08-23T00:28:39.646Z,0.00
2018-08-23T00:29:39.822Z,0.00
2018-08-23T00:30:39.999Z,0.00
2018-08-23T00:31:40.175Z,0.00
2018-08-23T00:32:40.346Z,0.00
2018-08-23T00:33:40.525Z,0.00
2018-08-23T00:34:40.694Z,0.00
2018-08-23T00:35:40.913Z,0.00
2018-08-23T00:36:41.060Z,0.00
2018-08-23T00:37:41.234Z,0.00
2018-08-23T00:38:41.413Z,0.00
2018-08-23T00:39:41.583Z,0.00
2018-08-23T00:40:41.767Z,0.00
2018-08-23T00:41:41.932Z,0.00
2018-08-23T00:42:42.110Z,0.00
2018-08-23T00:43:42.294Z,0.00
2018-08-23T00:44:42.462Z,0.00
2018-08-23T00:45:42.645Z,0.00
2018-08-23T00:46:42.825Z,0.00
2018-08-23T00:47:43.006Z,0.00
2018-08-23T00:48:43.183Z,0.00
2018-08-23T00:49:43.363Z,0.00
2018-08-23T00:50:43.540Z,0.00
2018-08-23T00:51:43.712Z,0.00
2018-08-23T00:52:43.888Z,0.00
2018-08-23T00:53:44.068Z,0.00
2018-08-23T00:54:44.247Z,0.00
2018-08-23T00:55:44.434Z,0.00
2018-08-23T00:56:44.603Z,0.00
2018-08-23T00:57:44.780Z,0.00
2018-08-23T00:58:44.959Z,0.00
2018-08-23T00:59:45.135Z,0.00
2018-08-23T01:00:45.304Z,0.00
2018-08-23T01:01:45.479Z,0.00
2018-08-23T01:02:45.655Z,0.00
2018-08-23T01:03:45.835Z,0.00
2018-08-23T01:04:46.012Z,0.00
2018-08-23T01:05:46.190Z,0.00
2018-08-23T01:06:46.373Z,0.00
2018-08-23T01:07:46.554Z,0.00
2018-08-23T01:08:46.726Z,0.00
2018-08-23T01:09:46.907Z,0.00
2018-08-23T01:10:47.079Z,0.00
2018-08-23T01:11:47.251Z,0.00
2018-08-23T01:12:47.428Z,0.00
2018-08-23T01:13:47.601Z,0.00
2018-08-23T01:14:47.781Z,0.00
2018-08-23T01:15:47.960Z,0.00
2018-08-23T01:16:48.148Z,0.00
2018-08-23T01:17:48.322Z,0.00
2018-08-23T01:18:48.492Z,0.00
2018-08-23T01:19:48.662Z,0.00
2018-08-23T01:20:48.845Z,0.00
2018-08-23T01:21:49.021Z,0.00
2018-08-23T01:22:49.200Z,0.00
2018-08-23T01:23:49.373Z,0.00
2018-08-23T01:24:49.554Z,0.00
2018-08-23T01:25:49.725Z,0.00
2018-08-23T01:26:49.904Z,0.00
2018-08-23T01:27:50.092Z,0.00
2018-08-23T01:28:50.277Z,0.00
2018-08-23T01:29:50.450Z,0.00
2018-08-23T01:30:50.626Z,0.00
2018-08-23T01:31:50.806Z,0.00
2018-08-23T01:32:50.980Z,0.00
2018-08-23T01:33:51.165Z,0.00
2018-08-23T01:34:51.338Z,0.00
2018-08-23T01:35:51.517Z,0.00
2018-08-23T01:36:51.696Z,0.00
2018-08-23T01:37:51.866Z,0.00
2018-08-23T01:38:52.049Z,0.00
2018-08-23T01:39:52.230Z,0.00
2018-08-23T01:40:52.405Z,0.00
2018-08-23T01:41:52.586Z,0.00
2018-08-23T01:42:52.766Z,0.00
2018-08-23T01:43:52.959Z,0.00
2018-08-23T01:44:53.138Z,0.00
2018-08-23T01:45:53.321Z,0.00
2018-08-23T01:46:53.492Z,0.00
2018-08-23T01:47:53.665Z,0.00
2018-08-23T01:48:53.851Z,0.00
2018-08-23T01:49:54.025Z,0.00
2018-08-23T01:50:54.201Z,0.00
2018-08-23T01:51:54.374Z,0.00
2018-08-23T01:52:54.549Z,0.00
2018-08-23T01:53:54.735Z,0.00
2018-08-23T01:54:54.912Z,0.00
2018-08-23T01:55:55.103Z,0.00
2018-08-23T01:56:55.275Z,0.00
2018-08-23T01:57:55.447Z,0.00
2018-08-23T01:58:55.625Z,0.00
2018-08-23T01:59:55.836Z,0.00
2018-08-23T02:00:55.977Z,0.00
2018-08-23T02:01:56.156Z,0.00
2018-08-23T02:02:56.323Z,0.00
2018-08-23T02:03:56.497Z,0.00
2018-08-23T02:04:56.681Z,0.00
2018-08-23T02:05:56.869Z,0.00
2018-08-23T02:06:57.045Z,0.00
2018-08-23T02:07:57.225Z,0.00
2018-08-23T02:08:57.403Z,0.00
2018-08-23T02:09:57.575Z,0.00
2018-08-23T02:10:57.749Z,0.00
2018-08-23T02:11:57.942Z,0.00
2018-08-23T02:12:58.121Z,0.00
2018-08-23T02:13:58.298Z,0.00
2018-08-23T02:14:58.477Z,0.00
2018-08-23T02:15:58.659Z,0.00
2018-08-23T02:16:58.834Z,0.00
2018-08-23T02:17:59.009Z,0.00
2018-08-23T02:18:59.190Z,0.00
2018-08-23T02:19:59.363Z,0.00
2018-08-23T02:20:59.542Z,0.00
2018-08-23T02:21:59.718Z,0.00
2018-08-23T02:22:59.891Z,0.00
2018-08-23T02:24:00.072Z,0.00
2018-08-23T02:25:00.246Z,0.00
2018-08-23T02:26:00.424Z,0.00
2018-08-23T02:27:00.606Z,0.00
2018-08-23T02:28:00.785Z,0.00
2018-08-23T02:29:00.966Z,0.00
2018-08-23T02:30:01.149Z,0.00
2018-08-23T02:31:01.318Z,0.00
2018-08-23T02:32:01.492Z,0.00
2018-08-23T02:33:01.665Z,0.00
2018-08-23T02:34:01.842Z,0.00
2018-08-23T02:35:02.010Z,0.00
2018-08-23T02:36:02.201Z,0.00
2018-08-23T02:37:02.376Z,0.00
2018-08-23T02:38:02.695Z,0.00
2018-08-23T02:39:02.728Z,0.00
2018-08-23T02:40:02.896Z,0.00
2018-08-23T02:41:03.068Z,0.00
2018-08-23T02:42:03.242Z,0.00
2018-08-23T02:43:03.413Z,0.00
2018-08-23T02:44:03.585Z,0.00
2018-08-23T02:45:03.754Z,0.00
2018-08-23T02:46:03.925Z,0.00
2018-08-23T02:47:04.105Z,0.00
2018-08-23T02:48:04.285Z,0.00
2018-08-23T02:49:04.465Z,0.00
2018-08-23T02:50:04.647Z,0.00
2018-08-23T02:51:04.813Z,0.00
2018-08-23T02:52:05.000Z,0.00
2018-08-23T02:53:05.181Z,0.00
2018-08-23T02:54:05.371Z,0.00
2018-08-23T02:55:05.552Z,0.00
2018-08-23T02:56:05.730Z,0.00
2018-08-23T02:57:05.912Z,0.00
2018-08-23T02:58:06.105Z,0.00
2018-08-23T02:59:06.280Z,0.00
2018-08-23T03:00:06.462Z,0.00
2018-08-23T03:01:06.635Z,0.00
2018-08-23T03:02:06.811Z,0.00
2018-08-23T03:03:06.995Z,0.00
2018-08-23T03:04:07.165Z,0.00
2018-08-23T03:05:07.344Z,0.00
2018-08-23T03:06:07.518Z,0.00
2018-08-23T03:07:07.696Z,0.00
2018-08-23T03:08:07.875Z,0.00
2018-08-23T03:09:08.047Z,0.00
2018-08-23T03:10:08.232Z,0.00
2018-08-23T03:11:08.405Z,0.00
2018-08-23T03:12:08.590Z,0.00
2018-08-23T03:13:08.765Z,0.00
2018-08-23T03:14:09.080Z,0.00
2018-08-23T03:15:09.110Z,0.00
2018-08-23T03:16:09.283Z,0.00
2018-08-23T03:17:09.464Z,0.00
2018-08-23T03:18:09.651Z,0.00
2018-08-23T03:19:09.829Z,0.00
2018-08-23T03:20:10.002Z,0.00
2018-08-23T03:21:10.176Z,0.00
2018-08-23T03:22:10.381Z,0.00
2018-08-23T03:23:10.560Z,0.00
2018-08-23T03:24:10.751Z,0.00
2018-08-23T03:25:10.925Z,0.00
2018-08-23T03:26:11.099Z,0.00
2018-08-23T03:27:11.272Z,0.00
2018-08-23T03:28:11.455Z,0.00
2018-08-23T03:29:11.633Z,0.00
2018-08-23T03:30:11.801Z,0.00
2018-08-23T03:31:11.975Z,0.00
2018-08-23T03:32:12.158Z,0.00
2018-08-23T03:33:12.325Z,0.00
2018-08-23T03:34:12.498Z,0.00
2018-08-23T03:35:12.673Z,0.00
2018-08-23T03:36:12.845Z,0.00
2018-08-23T03:37:13.019Z,0.00
2018-08-23T03:38:13.195Z,0.00
2018-08-23T03:39:13.377Z,0.00
2018-08-23T03:40:13.553Z,0.00
2018-08-23T03:41:13.726Z,0.00
2018-08-23T03:42:13.898Z,0.00
2018-08-23T03:43:14.073Z,0.00
2018-08-23T03:44:14.247Z,0.00
2018-08-23T03:45:14.624Z,0.00
2018-08-23T03:46:14.583Z,0.00
2018-08-23T03:47:14.769Z,0.00
2018-08-23T03:48:14.946Z,0.00
2018-08-23T03:49:15.119Z,0.00
2018-08-23T03:50:15.300Z,0.00
2018-08-23T03:51:15.475Z,0.00
2018-08-23T03:52:15.658Z,0.00
2018-08-23T03:53:15.834Z,0.00
2018-08-23T03:54:16.023Z,0.00
2018-08-23T03:55:16.196Z,0.00
2018-08-23T03:56:16.373Z,0.00
2018-08-23T03:57:16.554Z,0.00
2018-08-23T03:58:16.729Z,0.00
2018-08-23T03:59:16.905Z,0.00
2018-08-23T04:00:17.076Z,0.00
2018-08-23T04:01:17.257Z,0.00
2018-08-23T04:02:17.439Z,0.00
2018-08-23T04:03:17.621Z,0.00
2018-08-23T04:04:17.812Z,0.00
2018-08-23T04:05:17.997Z,0.00
2018-08-23T04:06:18.167Z,0.00
2018-08-23T04:07:18.342Z,0.00
2018-08-23T04:08:18.517Z,0.00
2018-08-23T04:09:18.698Z,0.00
2018-08-23T04:10:18.875Z,0.00
2018-08-23T04:11:19.062Z,0.00
2018-08-23T04:12:19.231Z,0.00
2018-08-23T04:13:19.407Z,0.00
2018-08-23T04:14:19.588Z,0.00
2018-08-23T04:15:19.805Z,0.00
2018-08-23T04:16:19.999Z,0.00
2018-08-23T04:17:20.145Z,0.00
2018-08-23T04:18:20.316Z,0.00
2018-08-23T04:19:20.488Z,0.00
2018-08-23T04:20:20.664Z,0.00
2018-08-23T04:21:20.846Z,0.00
2018-08-23T04:22:21.018Z,0.00
2018-08-23T04:23:21.193Z,0.00
2018-08-23T04:24:21.367Z,0.00
2018-08-23T04:25:21.545Z,0.00
2018-08-23T04:26:21.726Z,0.00
2018-08-23T04:27:21.912Z,0.00
2018-08-23T04:28:22.079Z,0.00
2018-08-23T04:29:22.244Z,0.00
2018-08-23T04:30:22.437Z,0.00
2018-08-23T04:31:22.614Z,0.00
2018-08-23T04:32:22.795Z,5.63
2018-08-23T04:33:22.974Z,5.63
2018-08-23T04:34:23.163Z,5.63
2018-08-23T04:35:23.356Z,5.63
2018-08-23T04:36:23.527Z,5.63
2018-08-23T04:37:23.707Z,5.63
2018-08-23T04:38:23.876Z,5.63
2018-08-23T04:39:26.502Z,5.63
2018-08-23T04:40:24.665Z,5.63
2018-08-23T04:41:24.360Z,5.63
2018-08-23T04:42:24.540Z,5.63
2018-08-23T04:43:24.783Z,5.63
2018-08-23T04:44:24.898Z,5.63
2018-08-23T04:45:25.079Z,5.63
2018-08-23T04:46:25.267Z,11.25
2018-08-23T04:47:27.582Z,11.25
2018-08-23T04:48:25.573Z,11.25
2018-08-23T04:49:25.754Z,11.25
2018-08-23T04:50:25.929Z,11.25
2018-08-23T04:51:27.260Z,11.25
2018-08-23T04:52:27.583Z,11.25
2018-08-23T04:53:27.937Z,11.25
2018-08-23T04:54:28.583Z,11.25
2018-08-23T04:55:26.750Z,11.25
2018-08-23T04:56:30.492Z,11.25
2018-08-23T04:57:28.327Z,16.88
2018-08-23T04:58:28.853Z,16.88
2018-08-23T04:59:28.400Z,16.88
2018-08-23T05:00:28.109Z,16.88
2018-08-23T05:01:27.835Z,16.88
2018-08-23T05:02:27.914Z,16.88
2018-08-23T05:03:30.489Z,16.88
2018-08-23T05:04:29.516Z,16.88
2018-08-23T05:05:28.736Z,16.88
2018-08-23T05:06:30.236Z,22.50
2018-08-23T05:07:29.613Z,22.50
2018-08-23T05:08:28.885Z,22.50
2018-08-23T05:09:31.051Z,22.50
2018-08-23T05:10:30.269Z,22.50
2018-08-23T05:11:29.992Z,22.50
2018-08-23T05:12:30.473Z,22.50
2018-08-23T05:13:29.700Z,22.50
2018-08-23T05:14:29.887Z,28.13
2018-08-23T05:15:30.318Z,28.13
2018-08-23T05:16:30.238Z,28.13
2018-08-23T05:17:30.307Z,28.13
2018-08-23T05:18:30.515Z,28.13
2018-08-23T05:19:30.713Z,28.13
2018-08-23T05:20:33.398Z,33.75
2018-08-23T05:21:33.452Z,33.75
2018-08-23T05:22:31.785Z,33.75
2018-08-23T05:23:31.347Z,33.75
2018-08-23T05:24:31.546Z,33.75
2018-08-23T05:25:31.727Z,33.75
2018-08-23T05:26:31.971Z,33.75
2018-08-23T05:27:32.024Z,39.38
2018-08-23T05:28:32.237Z,39.38
2018-08-23T05:29:32.610Z,39.38
2018-08-23T05:30:32.555Z,39.38
2018-08-23T05:31:33.359Z,39.38
2018-08-23T05:32:33.061Z,45.00
2018-08-23T05:33:33.133Z,45.00
2018-08-23T05:34:33.358Z,45.00
2018-08-23T05:35:33.373Z,45.00
2018-08-23T05:36:33.555Z,45.00
2018-08-23T05:37:35.807Z,45.00
2018-08-23T05:38:33.846Z,50.63
2018-08-23T05:39:34.134Z,50.63
2018-08-23T05:40:34.236Z,50.63
2018-08-23T05:41:34.278Z,50.63
2018-08-23T05:42:34.452Z,50.63
2018-08-23T05:43:34.624Z,50.63
2018-08-23T05:44:34.815Z,50.63
2018-08-23T05:45:34.990Z,56.25
2018-08-23T05:46:35.174Z,56.25
2018-08-23T05:47:35.382Z,56.25
2018-08-23T05:48:35.540Z,56.25
2018-08-23T05:49:35.714Z,56.25
2018-08-23T05:50:35.882Z,56.25
2018-08-23T05:51:36.070Z,61.88
2018-08-23T05:52:36.243Z,61.88
2018-08-23T05:53:36.573Z,61.88
2018-08-23T05:54:36.822Z,61.88
2018-08-23T05:55:36.751Z,61.88
2018-08-23T05:56:36.932Z,61.88
2018-08-23T05:57:37.107Z,61.88
2018-08-23T05:58:37.278Z,67.50
2018-08-23T05:59:37.466Z,67.50
2018-08-23T06:00:37.645Z,67.50
2018-08-23T06:01:37.836Z,67.50
2018-08-23T06:02:38.036Z,67.50
2018-08-23T06:03:38.189Z,67.50
2018-08-23T06:04:38.360Z,73.13
2018-08-23T06:05:38.542Z,84.38
2018-08-23T06:06:38.721Z,95.63
2018-08-23T06:07:38.909Z,101.25
2018-08-23T06:08:39.086Z,101.25
2018-08-23T06:09:39.261Z,101.25
2018-08-23T06:10:39.904Z,106.88
2018-08-23T06:11:40.093Z,106.88
2018-08-23T06:12:39.849Z,106.88
2018-08-23T06:13:40.615Z,106.88
2018-08-23T06:14:40.634Z,112.50
2018-08-23T06:15:41.753Z,112.50
2018-08-23T06:16:40.432Z,112.50
2018-08-23T06:17:40.616Z,112.50
2018-08-23T06:18:41.108Z,112.50
2018-08-23T06:19:40.979Z,118.13
2018-08-23T06:20:41.040Z,118.13
2018-08-23T06:21:41.218Z,118.13
2018-08-23T06:22:41.394Z,118.13
2018-08-23T06:23:41.584Z,118.13
2018-08-23T06:24:41.765Z,123.75
2018-08-23T06:25:41.949Z,123.75
2018-08-23T06:26:42.128Z,123.75
2018-08-23T06:27:42.324Z,123.75
2018-08-23T06:28:42.579Z,123.75
2018-08-23T06:29:42.870Z,129.38
2018-08-23T06:30:42.999Z,129.38
2018-08-23T06:31:43.076Z,129.38
2018-08-23T06:32:43.268Z,129.38
2018-08-23T06:33:43.511Z,129.38
2018-08-23T06:34:43.642Z,129.38
2018-08-23T06:35:43.916Z,135.00
2018-08-23T06:36:44.002Z,135.00
2018-08-23T06:37:44.178Z,135.00
2018-08-23T06:38:44.422Z,135.00
2018-08-23T06:39:44.561Z,135.00
2018-08-23T06:40:44.794Z,135.00
2018-08-23T06:41:44.950Z,135.00
2018-08-23T06:42:45.122Z,135.00
2018-08-23T06:43:45.300Z,135.00
2018-08-23T06:44:45.483Z,135.00
2018-08-23T06:45:45.680Z,135.00
2018-08-23T06:46:45.853Z,140.63
2018-08-23T06:47:46.044Z,140.63
2018-08-23T06:48:46.270Z,140.63
2018-08-23T06:49:46.415Z,140.63
2018-08-23T06:50:47.655Z,140.63
2018-08-23T06:51:48.155Z,140.63
2018-08-23T06:52:48.260Z,140.63
2018-08-23T06:53:50.062Z,140.63
2018-08-23T06:54:49.317Z,140.63
2018-08-23T06:55:49.395Z,140.63
2018-08-23T06:56:47.580Z,140.63
2018-08-23T06:57:47.819Z,146.25
2018-08-23T06:58:47.888Z,146.25
2018-08-23T06:59:48.067Z,146.25
2018-08-23T07:00:48.279Z,146.25
2018-08-23T07:01:48.465Z,146.25
2018-08-23T07:02:48.649Z,146.25
2018-08-23T07:03:48.881Z,146.25
2018-08-23T07:04:49.030Z,146.25
2018-08-23T07:05:49.226Z,146.25
2018-08-23T07:06:49.479Z,146.25
2018-08-23T07:07:49.599Z,146.25
2018-08-23T07:08:50.230Z,146.25
2018-08-23T07:09:49.918Z,146.25
2018-08-23T07:10:50.125Z,146.25
2018-08-23T07:11:50.419Z,146.25
2018-08-23T07:12:50.487Z,146.25
2018-08-23T07:13:50.545Z,151.88
2018-08-23T07:14:50.893Z,151.88
2018-08-23T07:15:51.217Z,151.88
2018-08-23T07:16:51.155Z,151.88
2018-08-23T07:17:51.390Z,151.88
2018-08-23T07:18:51.468Z,151.88
2018-08-23T07:19:51.653Z,151.88
2018-08-23T07:20:51.894Z,151.88
2018-08-23T07:21:53.052Z,151.88
2018-08-23T07:22:52.127Z,157.50
2018-08-23T07:23:52.303Z,157.50
2018-08-23T07:24:52.607Z,157.50
2018-08-23T07:25:52.607Z,157.50
2018-08-23T07:26:52.823Z,157.50
2018-08-23T07:27:52.977Z,157.50
2018-08-23T07:28:53.171Z,157.50
2018-08-23T07:29:53.361Z,157.50
2018-08-23T07:30:53.555Z,157.50
2018-08-23T07:31:53.762Z,157.50
2018-08-23T07:32:54.229Z,157.50
2018-08-23T07:33:54.080Z,157.50
2018-08-23T07:34:55.008Z,157.50
2018-08-23T07:35:55.268Z,157.50
2018-08-23T07:36:54.513Z,157.50
2018-08-23T07:37:54.704Z,157.50
2018-08-23T07:38:54.892Z,157.50
2018-08-23T07:39:55.088Z,163.13
2018-08-23T07:40:55.285Z,163.13
2018-08-23T07:41:55.472Z,163.13
2018-08-23T07:42:55.692Z,163.13
2018-08-23T07:43:55.872Z,157.50
2018-08-23T07:44:56.028Z,163.13
2018-08-23T07:45:56.215Z,157.50
2018-08-23T07:46:56.396Z,163.13
2018-08-23T07:47:56.584Z,163.13
2018-08-23T07:48:56.882Z,163.13
2018-08-23T07:49:56.923Z,163.13
2018-08-23T07:50:57.101Z,157.50
2018-08-23T07:51:57.284Z,163.13
2018-08-23T07:52:57.553Z,163.13
2018-08-23T07:53:57.661Z,168.75
2018-08-23T07:54:57.844Z,168.75
2018-08-23T07:55:58.020Z,174.38
2018-08-23T07:56:58.206Z,174.38
2018-08-23T07:57:58.387Z,180.00
2018-08-23T07:58:58.566Z,168.75
2018-08-23T07:59:58.744Z,168.75
2018-08-23T08:00:58.962Z,174.38
2018-08-23T08:01:59.107Z,174.38
2018-08-23T08:02:59.286Z,180.00
2018-08-23T08:03:59.497Z,180.00
2018-08-23T08:04:59.666Z,180.00
2018-08-23T08:05:59.849Z,185.63
2018-08-23T08:07:00.035Z,191.25
2018-08-23T08:08:00.224Z,196.88
2018-08-23T08:09:00.411Z,208.13
2018-08-23T08:10:00.591Z,208.13
2018-08-23T08:11:00.775Z,213.75
2018-08-23T08:12:00.970Z,213.75
2018-08-23T08:13:01.158Z,225.00
2018-08-23T08:14:01.341Z,230.63
2018-08-23T08:15:01.683Z,236.25
2018-08-23T08:16:01.725Z,253.13
2018-08-23T08:17:01.906Z,281.25
2018-08-23T08:18:02.095Z,326.25
2018-08-23T08:19:02.278Z,399.38
2018-08-23T08:20:02.470Z,517.50
2018-08-23T08:21:02.778Z,686.25
2018-08-23T08:22:02.850Z,894.38
2018-08-23T08:23:03.039Z,1108.13
2018-08-23T08:24:03.234Z,1276.88
2018-08-23T08:25:03.427Z,1395.00
2018-08-23T08:26:03.606Z,1456.88
2018-08-23T08:27:03.820Z,1501.88
2018-08-23T08:28:03.984Z,1479.38
2018-08-23T08:29:04.580Z,1468.13
2018-08-23T08:30:04.384Z,1456.88
2018-08-23T08:31:04.575Z,1434.38
2018-08-23T08:32:04.762Z,1411.88
2018-08-23T08:33:05.014Z,1389.38
2018-08-23T08:34:06.004Z,1361.25
2018-08-23T08:35:05.301Z,1344.38
2018-08-23T08:36:05.491Z,1327.50
2018-08-23T08:37:05.684Z,1293.75
2018-08-23T08:38:05.914Z,1215.00
2018-08-23T08:39:06.112Z,1361.25
2018-08-23T08:40:06.402Z,1378.13
2018-08-23T08:41:06.502Z,1389.38
2018-08-23T08:42:06.743Z,1383.75
2018-08-23T08:43:07.757Z,1378.13
2018-08-23T08:44:07.067Z,1361.25
2018-08-23T08:45:07.364Z,1355.63
2018-08-23T08:46:08.051Z,1372.50
2018-08-23T08:47:07.718Z,1366.88
2018-08-23T08:48:07.794Z,1355.63
2018-08-23T08:49:08.042Z,1366.88
2018-08-23T08:50:08.309Z,1389.38
2018-08-23T08:51:08.306Z,1428.75
2018-08-23T08:52:08.544Z,1456.88
2018-08-23T08:53:09.253Z,1569.38
2018-08-23T08:54:08.940Z,1732.50
2018-08-23T08:55:09.298Z,1929.38
2018-08-23T08:56:09.485Z,3178.13
2018-08-23T08:57:09.631Z,5405.63
2018-08-23T08:58:09.774Z,5253.75
2018-08-23T08:59:09.630Z,4381.88
2018-08-23T09:00:10.081Z,3982.50
2018-08-23T09:01:10.284Z,3791.25
2018-08-23T09:02:10.483Z,3616.88
2018-08-23T09:03:13.368Z,3476.25
2018-08-23T09:04:11.945Z,3436.88
2018-08-23T09:05:11.344Z,3318.75
2018-08-23T09:06:11.202Z,3251.25
2018-08-23T09:07:11.613Z,3251.25
2018-08-23T09:08:11.707Z,3200.63
2018-08-23T09:09:12.137Z,3200.63
2018-08-23T09:10:12.231Z,3166.88
2018-08-23T09:11:12.290Z,3127.50
2018-08-23T09:12:12.443Z,3105.00
2018-08-23T09:13:12.388Z,3076.88
2018-08-23T09:14:12.571Z,3071.25
2018-08-23T09:15:12.778Z,3037.50
2018-08-23T09:16:13.037Z,3048.75
2018-08-23T09:17:13.067Z,3082.50
2018-08-23T09:18:13.253Z,3043.13
2018-08-23T09:19:13.449Z,3037.50
2018-08-23T09:20:13.638Z,3026.25
2018-08-23T09:21:13.831Z,3054.38
2018-08-23T09:22:14.087Z,3009.38
2018-08-23T09:23:14.262Z,2936.25
2018-08-23T09:24:14.462Z,2947.50
2018-08-23T09:25:14.698Z,2947.50
2018-08-23T09:26:14.847Z,2936.25
2018-08-23T09:27:15.141Z,2902.50
2018-08-23T09:28:15.265Z,2947.50
2018-08-23T09:29:15.475Z,2930.63
2018-08-23T09:30:15.670Z,2913.75
2018-08-23T09:31:15.925Z,2913.75
2018-08-23T09:32:16.093Z,2863.13
2018-08-23T09:33:16.286Z,2908.13
2018-08-23T09:34:16.488Z,2936.25
2018-08-23T09:35:16.668Z,2919.38
2018-08-23T09:36:16.852Z,2840.63
2018-08-23T09:37:17.044Z,2790.00
2018-08-23T09:38:17.262Z,2868.75
2018-08-23T09:39:17.424Z,2964.38
2018-08-23T09:40:17.760Z,2953.13
2018-08-23T09:41:17.883Z,2896.88
2018-08-23T09:42:18.076Z,2874.38
2018-08-23T09:43:20.199Z,2908.13
2018-08-23T09:44:19.824Z,2840.63
2018-08-23T09:45:19.049Z,2801.25
2018-08-23T09:46:19.048Z,2823.75
2018-08-23T09:47:19.970Z,2818.13
2018-08-23T09:48:19.085Z,2795.63
2018-08-23T09:49:20.636Z,2632.50
2018-08-23T09:50:20.790Z,2570.63
2018-08-23T09:51:22.198Z,2368.13
2018-08-23T09:52:21.267Z,2368.13
2018-08-23T09:53:21.190Z,2874.38
2018-08-23T09:54:21.020Z,2694.38
2018-08-23T09:55:21.288Z,2728.13
2018-08-23T09:56:20.692Z,2092.50
2018-08-23T09:57:20.636Z,2542.50
2018-08-23T09:58:23.232Z,2750.63
2018-08-23T09:59:21.814Z,2570.63
2018-08-23T10:00:24.741Z,2176.88
2018-08-23T10:01:21.234Z,2154.38
2018-08-23T10:02:21.433Z,2396.25
2018-08-23T10:03:21.667Z,2514.38
2018-08-23T10:04:22.536Z,2503.13
2018-08-23T10:05:22.169Z,1631.25
2018-08-23T10:06:22.261Z,2250.00
2018-08-23T10:07:22.747Z,2216.25
2018-08-23T10:08:22.671Z,2205.00
2018-08-23T10:09:23.031Z,1895.63
2018-08-23T10:10:23.001Z,1423.13
2018-08-23T10:11:23.279Z,1698.75
2018-08-23T10:12:23.391Z,1985.63
2018-08-23T10:13:23.578Z,1951.88
2018-08-23T10:14:23.772Z,1884.38
2018-08-23T10:15:24.183Z,1794.38
2018-08-23T10:16:24.222Z,1704.38
2018-08-23T10:17:24.293Z,1631.25
2018-08-23T10:18:24.489Z,1507.50
2018-08-23T10:19:24.680Z,1468.13
2018-08-23T10:20:24.938Z,1428.75
2018-08-23T10:21:25.001Z,1383.75
2018-08-23T10:22:25.191Z,1361.25
2018-08-23T10:23:25.379Z,1344.38
2018-08-23T10:24:25.580Z,1361.25
2018-08-23T10:25:25.772Z,1378.13
2018-08-23T10:26:31.533Z,1378.13
2018-08-23T10:27:29.506Z,1361.25
2018-08-23T10:28:27.606Z,1350.00
2018-08-23T10:29:28.422Z,1338.75
2018-08-23T10:30:29.503Z,1321.88
2018-08-23T10:31:26.761Z,1310.63
2018-08-23T10:32:26.914Z,1276.88
2018-08-23T10:33:27.098Z,1288.13
2018-08-23T10:34:27.295Z,1293.75
2018-08-23T10:35:27.480Z,1316.25
2018-08-23T10:36:27.669Z,1327.50
2018-08-23T10:37:27.859Z,1305.00
2018-08-23T10:38:28.049Z,1344.38
2018-08-23T10:39:28.236Z,1417.50
2018-08-23T10:40:28.445Z,1473.75
2018-08-23T10:41:28.646Z,1496.25
2018-08-23T10:42:28.861Z,1518.75
2018-08-23T10:43:29.070Z,1468.13
2018-08-23T10:44:29.294Z,1490.63
2018-08-23T10:45:29.452Z,1490.63
2018-08-23T10:46:29.645Z,1496.25
2018-08-23T10:47:29.846Z,1406.25
2018-08-23T10:48:30.031Z,1411.88
2018-08-23T10:49:30.228Z,1434.38
2018-08-23T10:50:30.461Z,1456.88
2018-08-23T10:51:30.629Z,1462.50
2018-08-23T10:52:30.827Z,1473.75
2018-08-23T10:53:31.018Z,1428.75
2018-08-23T10:54:31.888Z,1456.88
2018-08-23T10:55:32.914Z,1507.50
2018-08-23T10:56:31.588Z,1406.25
2018-08-23T10:57:31.771Z,1451.25
2018-08-23T10:58:31.972Z,523.13
2018-08-23T10:59:32.165Z,511.88
2018-08-23T11:00:32.348Z,556.88
2018-08-23T11:01:32.582Z,1141.88
2018-08-23T11:02:32.752Z,1383.75
2018-08-23T11:03:32.954Z,1012.50
2018-08-23T11:04:33.148Z,1378.13
2018-08-23T11:05:33.345Z,1372.50
2018-08-23T11:06:33.602Z,1366.88
2018-08-23T11:07:33.663Z,1350.00
2018-08-23T11:08:33.857Z,1316.25
2018-08-23T11:09:34.065Z,1305.00
2018-08-23T11:10:34.294Z,1293.75
2018-08-23T11:11:34.386Z,1276.88
2018-08-23T11:12:34.619Z,1260.00
2018-08-23T11:13:34.809Z,1254.38
2018-08-23T11:14:35.004Z,1231.88
2018-08-23T11:15:35.200Z,1231.88
2018-08-23T11:16:35.480Z,1231.88
2018-08-23T11:17:36.253Z,1209.38
2018-08-23T11:18:36.349Z,1192.50
2018-08-23T11:19:36.601Z,1186.88
2018-08-23T11:20:40.827Z,1198.13
2018-08-23T11:21:38.394Z,1186.88
2018-08-23T11:22:37.349Z,1203.75
2018-08-23T11:23:38.098Z,1215.00
2018-08-23T11:24:37.108Z,1237.50
2018-08-23T11:25:37.424Z,1226.25
2018-08-23T11:26:37.063Z,1237.50
2018-08-23T11:27:37.267Z,1226.25
2018-08-23T11:28:37.666Z,1220.63
2018-08-23T11:29:37.667Z,1220.63
2018-08-23T11:30:37.790Z,1203.75
2018-08-23T11:31:41.453Z,1215.00
2018-08-23T11:32:41.750Z,1220.63
2018-08-23T11:33:38.351Z,1209.38
2018-08-23T11:34:38.534Z,1215.00
2018-08-23T11:35:38.716Z,1209.38
2018-08-23T11:36:38.905Z,1231.88
2018-08-23T11:37:39.104Z,1265.63
2018-08-23T11:38:39.374Z,1282.50
2018-08-23T11:39:39.437Z,1338.75
2018-08-23T11:40:39.661Z,1395.00
2018-08-23T11:41:39.845Z,1406.25
2018-08-23T11:42:40.124Z,1333.13
2018-08-23T11:43:40.366Z,1248.75
2018-08-23T11:44:40.448Z,1186.88
2018-08-23T11:45:40.530Z,1175.63
2018-08-23T11:46:40.735Z,1170.00
2018-08-23T11:47:40.938Z,1147.50
2018-08-23T11:48:41.371Z,1113.75
2018-08-23T11:49:42.564Z,1068.75
2018-08-23T11:50:41.789Z,1063.13
2018-08-23T11:51:42.424Z,1023.75
2018-08-23T11:52:43.318Z,1006.88
2018-08-23T11:53:43.995Z,967.50
2018-08-23T11:54:43.605Z,933.75
2018-08-23T11:55:43.612Z,905.63
2018-08-23T11:56:43.493Z,888.75
2018-08-23T11:57:43.874Z,866.25
2018-08-23T11:58:44.067Z,871.88
2018-08-23T11:59:44.268Z,860.63
2018-08-23T12:00:44.432Z,821.25
2018-08-23T12:01:44.501Z,641.25
2018-08-23T12:02:45.536Z,433.13
2018-08-23T12:03:47.016Z,360.00
2018-08-23T12:04:45.001Z,331.88
2018-08-23T12:05:45.137Z,326.25
2018-08-23T12:06:44.867Z,326.25
2018-08-23T12:07:44.839Z,315.00
2018-08-23T12:08:45.021Z,315.00
2018-08-23T12:09:45.244Z,309.38
2018-08-23T12:10:45.421Z,281.25
2018-08-23T12:11:45.609Z,286.88
2018-08-23T12:12:45.797Z,264.38
2018-08-23T12:13:45.988Z,247.50
2018-08-23T12:14:46.171Z,230.63
2018-08-23T12:15:46.369Z,213.75
2018-08-23T12:16:49.272Z,213.75
2018-08-23T12:17:47.194Z,191.25
2018-08-23T12:18:47.840Z,163.13
2018-08-23T12:19:47.238Z,174.38
2018-08-23T12:20:47.633Z,168.75
2018-08-23T12:21:48.488Z,163.13
2018-08-23T12:22:49.777Z,163.13
2018-08-23T12:23:48.236Z,151.88
2018-08-23T12:24:47.978Z,146.25
2018-08-23T12:25:48.613Z,146.25
2018-08-23T12:26:49.542Z,146.25
2018-08-23T12:27:48.925Z,146.25
2018-08-23T12:28:48.987Z,151.88
2018-08-23T12:29:49.283Z,168.75
2018-08-23T12:30:49.377Z,213.75
2018-08-23T12:31:49.491Z,230.63
2018-08-23T12:32:50.194Z,258.75
2018-08-23T12:33:49.488Z,247.50
2018-08-23T12:34:49.744Z,247.50
2018-08-23T12:35:49.888Z,219.38
2018-08-23T12:36:50.174Z,213.75
2018-08-23T12:37:50.573Z,202.50
2018-08-23T12:38:50.410Z,213.75
2018-08-23T12:39:50.605Z,208.13
2018-08-23T12:40:50.838Z,208.13
2018-08-23T12:41:51.011Z,202.50
2018-08-23T12:42:51.241Z,196.88
2018-08-23T12:43:51.347Z,196.88
2018-08-23T12:44:51.495Z,191.25